Time;durP1;ratioP1;P1;durP2;ratioP2;P2;SDS_P1;SDS_P2;PMS_P1;PMS_P2;Temp;Humidity;BMP_temperature;BMP_pressure;BME280_temperature;BME280_humidity;BME280_pressure;Samples;Min_cycle;Max_cycle;Signal;HPM_P1;HPM_P2
2022/02/07 00:00:13;;;;;;;;;;;23.40;81.40;;;;;;5089143;28;20561;-46
2022/02/07 00:03:04;;;;;;;;;;;23.40;81.00;;;;;;5088657;28;19915;-51
2022/02/07 00:05:31;;;;;;;;;;;23.40;81.40;;;;;;5085235;28;19912;-45
2022/02/07 00:08:01;;;;;;;;;;;23.50;81.40;;;;;;5085571;28;19956;-49
2022/02/07 00:10:28;;;;;;;;;;;23.50;81.40;;;;;;5090043;28;19931;-49
2022/02/07 00:12:55;;;;;;;;;;;23.50;82.00;;;;;;5093385;28;19908;-59
2022/02/07 00:15:22;;;;;;;;;;;23.50;82.20;;;;;;5093187;28;19920;-59
2022/02/07 00:17:49;;;;;;;;;;;23.50;82.30;;;;;;5093340;28;19915;-51
2022/02/07 00:20:19;;;;;;;;;;;23.50;82.70;;;;;;5075187;28;20243;-57
2022/02/07 00:22:46;;;;;;;;;;;23.50;82.40;;;;;;5075151;28;20261;-61
2022/02/07 00:25:12;;;;;;;;;;;23.50;82.20;;;;;;5093590;28;19924;-55
2022/02/07 00:27:39;;;;;;;;;;;23.60;82.70;;;;;;5093660;28;19966;-57
2022/02/07 00:30:07;;;;;;;;;;;23.60;82.30;;;;;;5093124;28;19908;-57
2022/02/07 00:32:37;;;;;;;;;;;23.60;82.10;;;;;;5093228;28;19966;-58
2022/02/07 00:35:04;;;;;;;;;;;23.70;81.80;;;;;;5075197;28;19915;-56
2022/02/07 00:37:33;;;;;;;;;;;23.70;81.60;;;;;;5093135;28;20076;-59
2022/02/07 00:40:17;;;;;;;;;;;23.70;81.50;;;;;;5092410;28;19908;-53
2022/02/07 00:45:53;;;;;;;;;;;23.80;81.20;;;;;;5079590;28;19922;-55
2022/02/07 00:48:23;;;;;;;;;;;23.80;80.40;;;;;;5093370;28;19909;-62
2022/02/07 00:50:50;;;;;;;;;;;23.80;80.50;;;;;;5093320;28;19908;-51
2022/02/07 00:53:17;;;;;;;;;;;23.80;80.50;;;;;;5093224;28;20266;-57
2022/02/07 00:55:44;;;;;;;;;;;23.90;80.20;;;;;;5092873;28;19987;-52
2022/02/07 00:58:10;;;;;;;;;;;23.90;79.40;;;;;;5092638;28;19908;-55
2022/02/07 01:00:37;;;;;;;;;;;24.00;80.20;;;;;;5092784;28;19909;-60
2022/02/07 01:03:04;;;;;;;;;;;24.00;79.10;;;;;;5092746;28;19931;-57
2022/02/07 01:05:30;;;;;;;;;;;24.10;79.00;;;;;;5092985;28;19926;-61
2022/02/07 01:07:59;;;;;;;;;;;24.10;79.10;;;;;;5074265;28;19950;-61
2022/02/07 01:10:35;;;;;;;;;;;24.10;79.20;;;;;;5092727;28;20015;-51
2022/02/07 01:13:12;;;;;;;;;;;24.20;78.60;;;;;;5092829;28;19951;-52
2022/02/07 01:23:46;;;;;;;;;;;24.30;77.30;;;;;;5091943;28;19973;-58
2022/02/07 01:48:38;;;;;;;;;;;24.70;74.20;;;;;;5086380;28;19923;-43
2022/02/07 01:51:11;;;;;;;;;;;24.80;71.80;;;;;;5089164;28;19909;-50
2022/02/07 01:54:07;;;;;;;;;;;24.80;71.30;;;;;;5088428;28;20303;-52
2022/02/07 01:56:34;;;;;;;;;;;24.80;70.50;;;;;;5087879;28;19908;-55
2022/02/07 01:59:01;;;;;;;;;;;24.90;70.30;;;;;;5086349;28;19912;-52
2022/02/07 02:01:28;;;;;;;;;;;24.80;69.60;;;;;;5089104;28;19934;-47
2022/02/07 02:03:55;;;;;;;;;;;24.80;69.50;;;;;;5087039;28;20455;-52
2022/02/07 02:06:22;;;;;;;;;;;24.80;68.40;;;;;;5086724;28;19916;-52
2022/02/07 02:08:49;;;;;;;;;;;24.90;68.20;;;;;;5085902;28;19908;-57
2022/02/07 02:11:16;;;;;;;;;;;24.90;68.70;;;;;;5089204;28;19934;-49
2022/02/07 02:16:23;;;;;;;;;;;24.90;71.60;;;;;;5072532;28;19925;-58
2022/02/07 02:35:51;;;;;;;;;;;24.40;76.70;;;;;;5071759;28;19915;-55
2022/02/07 02:38:03;;;;;;;;;;;24.40;77.00;;;;;;5069357;28;19908;-53
2022/02/07 02:45:45;;;;;;;;;;;24.30;78.30;;;;;;5074675;28;19923;-52
2022/02/07 02:48:24;;;;;;;;;;;24.20;78.40;;;;;;5075571;28;20045;-54
2022/02/07 02:50:54;;;;;;;;;;;24.20;78.60;;;;;;5068956;28;19958;-53
2022/02/07 02:53:22;;;;;;;;;;;24.20;78.80;;;;;;5038190;28;20461;-51
2022/02/07 02:55:49;;;;;;;;;;;24.20;79.10;;;;;;5075303;28;20251;-54
2022/02/07 02:58:18;;;;;;;;;;;24.20;79.20;;;;;;5053526;28;19908;-54
2022/02/07 03:00:46;;;;;;;;;;;24.20;79.10;;;;;;5072251;28;19916;-50
2022/02/07 03:03:13;;;;;;;;;;;24.20;79.00;;;;;;5071757;28;19966;-54
2022/02/07 03:05:43;;;;;;;;;;;24.30;79.20;;;;;;5053369;28;20007;-58
2022/02/07 03:08:10;;;;;;;;;;;24.30;79.20;;;;;;5074608;28;19934;-51
2022/02/07 03:11:13;;;;;;;;;;;24.30;79.00;;;;;;5090432;28;19908;-46
2022/02/07 03:18:41;;;;;;;;;;;24.50;78.30;;;;;;5068485;28;19958;-46
2022/02/07 03:21:08;;;;;;;;;;;24.60;78.30;;;;;;5072903;28;20310;-54
2022/02/07 03:23:35;;;;;;;;;;;24.60;77.90;;;;;;5075798;28;19912;-55
2022/02/07 03:26:04;;;;;;;;;;;24.70;77.70;;;;;;5072087;28;19916;-52
2022/02/07 03:28:30;;;;;;;;;;;24.70;77.60;;;;;;5070230;28;19908;-53
2022/02/07 03:30:57;;;;;;;;;;;24.70;77.60;;;;;;5051798;28;19912;-52
2022/02/07 03:33:24;;;;;;;;;;;24.80;77.00;;;;;;5054848;28;19915;-56
2022/02/07 03:35:50;;;;;;;;;;;24.80;77.80;;;;;;5072212;28;19965;-48
2022/02/07 03:38:17;;;;;;;;;;;24.80;78.40;;;;;;5069902;28;19923;-53
2022/02/07 03:40:44;;;;;;;;;;;24.70;78.90;;;;;;5073803;28;19937;-49
2022/02/07 03:43:11;;;;;;;;;;;24.70;80.00;;;;;;5072040;28;19912;-52
2022/02/07 03:45:37;;;;;;;;;;;24.70;80.40;;;;;;5076382;28;19923;-51
2022/02/07 03:48:04;;;;;;;;;;;24.70;80.30;;;;;;5066597;28;19931;-51
2022/02/07 03:50:31;;;;;;;;;;;24.60;79.80;;;;;;5070551;28;19927;-56
2022/02/07 03:52:57;;;;;;;;;;;24.60;80.60;;;;;;5073253;28;19917;-54
2022/02/07 03:55:24;;;;;;;;;;;24.60;80.00;;;;;;5071441;28;19967;-57
2022/02/07 03:57:51;;;;;;;;;;;24.50;80.20;;;;;;5069013;28;19916;-51
2022/02/07 04:00:18;;;;;;;;;;;24.50;80.20;;;;;;5072013;28;19923;-48
2022/02/07 04:02:49;;;;;;;;;;;24.50;80.30;;;;;;5071600;28;19914;-56
2022/02/07 04:08:01;;;;;;;;;;;24.50;80.50;;;;;;5071201;28;20053;-56
2022/02/07 04:10:34;;;;;;;;;;;24.50;80.40;;;;;;5071086;28;19941;-52
2022/02/07 04:13:03;;;;;;;;;;;24.50;80.40;;;;;;5073503;28;19919;-56
2022/02/07 04:15:30;;;;;;;;;;;24.50;80.40;;;;;;5082090;28;19927;-52
2022/02/07 04:17:59;;;;;;;;;;;24.50;80.30;;;;;;5080143;28;20331;-53
2022/02/07 04:20:26;;;;;;;;;;;24.50;80.30;;;;;;5086278;28;19969;-48
2022/02/07 04:22:52;;;;;;;;;;;24.50;80.20;;;;;;5084606;28;19908;-52
2022/02/07 04:25:19;;;;;;;;;;;24.50;80.40;;;;;;5089321;28;20065;-52
2022/02/07 04:27:46;;;;;;;;;;;24.50;80.50;;;;;;5079538;28;19926;-50
2022/02/07 04:30:13;;;;;;;;;;;24.50;80.20;;;;;;5085328;28;20008;-53
2022/02/07 04:32:40;;;;;;;;;;;24.60;80.20;;;;;;5069097;28;20384;-52
2022/02/07 04:35:07;;;;;;;;;;;24.60;80.30;;;;;;5083088;28;20255;-51
2022/02/07 04:37:34;;;;;;;;;;;24.50;80.00;;;;;;5079178;28;19912;-53
2022/02/07 04:40:00;;;;;;;;;;;24.30;79.80;;;;;;5083116;28;20027;-55
2022/02/07 04:42:28;;;;;;;;;;;24.30;79.20;;;;;;5080236;28;19916;-56
2022/02/07 04:58:25;;;;;;;;;;;24.40;82.60;;;;;;5078672;28;19908;-59
2022/02/07 05:01:10;;;;;;;;;;;24.60;81.80;;;;;;5086409;28;19912;-54
2022/02/07 05:03:46;;;;;;;;;;;24.50;81.80;;;;;;5087244;28;19908;-56
2022/02/07 05:14:27;;;;;;;;;;;24.50;81.50;;;;;;5079660;28;20230;-57
2022/02/07 05:16:57;;;;;;;;;;;24.60;81.30;;;;;;5084145;28;20393;-52
2022/02/07 05:19:24;;;;;;;;;;;24.60;80.90;;;;;;5063716;28;19908;-51
2022/02/07 05:21:51;;;;;;;;;;;24.70;80.40;;;;;;5084405;28;19955;-54
2022/02/07 05:24:18;;;;;;;;;;;24.70;80.00;;;;;;5086043;28;20460;-51
2022/02/07 05:26:45;;;;;;;;;;;24.70;79.80;;;;;;5087098;28;19939;-54
2022/02/07 05:29:11;;;;;;;;;;;24.70;79.60;;;;;;5078924;28;19934;-52
2022/02/07 05:31:38;;;;;;;;;;;24.70;79.40;;;;;;5064749;28;19983;-60
2022/02/07 05:34:06;;;;;;;;;;;24.70;79.00;;;;;;5086743;28;19908;-52
2022/02/07 05:36:40;;;;;;;;;;;24.80;79.80;;;;;;5085386;28;19908;-55
2022/02/07 05:39:07;;;;;;;;;;;24.70;79.40;;;;;;5078345;28;19976;-54
2022/02/07 05:41:34;;;;;;;;;;;24.80;79.90;;;;;;5080805;28;19974;-55
2022/02/07 05:44:00;;;;;;;;;;;24.70;80.40;;;;;;5086118;28;20081;-62
2022/02/07 05:46:27;;;;;;;;;;;24.70;80.00;;;;;;5085857;28;19923;-56
2022/02/07 05:48:54;;;;;;;;;;;24.70;80.00;;;;;;5080575;28;19999;-54
2022/02/07 05:51:21;;;;;;;;;;;24.70;80.00;;;;;;5090093;28;19919;-50
2022/02/07 05:53:47;;;;;;;;;;;24.70;80.30;;;;;;5079109;28;20405;-57
2022/02/07 05:56:14;;;;;;;;;;;24.70;80.40;;;;;;5075248;28;20247;-58
2022/02/07 05:58:41;;;;;;;;;;;24.60;80.40;;;;;;5075233;28;19912;-59
2022/02/07 06:01:07;;;;;;;;;;;24.60;80.70;;;;;;5075633;28;20390;-51
2022/02/07 06:03:34;;;;;;;;;;;24.60;81.60;;;;;;5075495;28;20306;-55
2022/02/07 06:06:01;;;;;;;;;;;24.60;81.20;;;;;;5057082;28;19975;-58
2022/02/07 06:08:29;;;;;;;;;;;24.50;81.20;;;;;;5075394;28;19919;-59
2022/02/07 06:10:56;;;;;;;;;;;24.50;81.40;;;;;;5074802;28;19961;-59
2022/02/07 06:13:23;;;;;;;;;;;24.50;81.20;;;;;;5075546;28;19913;-51
2022/02/07 06:15:50;;;;;;;;;;;24.40;81.30;;;;;;5091023;28;19920;-52
2022/02/07 06:18:18;;;;;;;;;;;24.40;81.50;;;;;;5095650;28;19979;-49
2022/02/07 06:20:47;;;;;;;;;;;24.40;81.60;;;;;;5094981;28;19940;-52
2022/02/07 06:23:14;;;;;;;;;;;24.40;81.20;;;;;;5076978;28;19953;-50
2022/02/07 06:25:41;;;;;;;;;;;24.40;81.20;;;;;;5095406;28;20388;-54
2022/02/07 06:28:07;;;;;;;;;;;24.40;81.90;;;;;;5094853;28;20022;-54
2022/02/07 06:30:34;;;;;;;;;;;24.40;81.10;;;;;;5095489;28;19951;-54
2022/02/07 06:33:01;;;;;;;;;;;24.40;81.20;;;;;;5095499;28;19912;-52
2022/02/07 06:35:28;;;;;;;;;;;24.40;80.80;;;;;;5082540;28;20013;-49
2022/02/07 06:37:55;;;;;;;;;;;24.40;78.30;;;;;;5073398;28;19916;-53
2022/02/07 06:40:22;;;;;;;;;;;24.50;78.50;;;;;;5075545;28;20007;-55
2022/02/07 06:42:49;;;;;;;;;;;24.40;77.50;;;;;;5073780;28;20352;-51
2022/02/07 06:45:16;;;;;;;;;;;24.50;77.90;;;;;;5074743;28;19912;-53
2022/02/07 06:47:43;;;;;;;;;;;24.40;77.60;;;;;;5073569;28;20370;-50
2022/02/07 06:50:09;;;;;;;;;;;24.40;77.90;;;;;;5051496;28;19919;-56
2022/02/07 06:52:36;;;;;;;;;;;24.40;77.00;;;;;;5076321;28;20393;-55
2022/02/07 06:55:03;;;;;;;;;;;24.50;77.60;;;;;;5072454;28;20416;-54
2022/02/07 06:57:30;;;;;;;;;;;24.40;77.30;;;;;;5074739;28;20370;-50
2022/02/07 06:59:57;;;;;;;;;;;24.40;77.20;;;;;;5070342;28;20374;-52
2022/02/07 07:02:27;;;;;;;;;;;24.40;75.30;;;;;;5075811;28;19908;-51
2022/02/07 07:04:56;;;;;;;;;;;24.40;73.60;;;;;;5072121;28;20033;-53
2022/02/07 07:07:23;;;;;;;;;;;24.40;75.20;;;;;;5072283;28;19923;-50
2022/02/07 07:09:57;;;;;;;;;;;24.30;75.40;;;;;;5073564;28;19914;-48
2022/02/07 07:12:24;;;;;;;;;;;24.30;74.40;;;;;;5055683;28;19909;-51
2022/02/07 07:14:57;;;;;;;;;;;24.30;74.80;;;;;;5076934;28;20322;-50
2022/02/07 07:17:24;;;;;;;;;;;24.30;75.90;;;;;;5088048;28;20370;-50
2022/02/07 07:19:51;;;;;;;;;;;24.30;75.10;;;;;;5086038;28;19928;-46
2022/02/07 07:22:17;;;;;;;;;;;24.30;75.60;;;;;;5083373;28;19951;-50
2022/02/07 07:24:45;;;;;;;;;;;24.20;74.80;;;;;;5088920;28;19915;-52
2022/02/07 07:27:13;;;;;;;;;;;24.30;76.00;;;;;;5081354;28;19973;-49
2022/02/07 07:29:45;;;;;;;;;;;24.20;74.60;;;;;;5085307;28;19914;-56
2022/02/07 07:32:12;;;;;;;;;;;24.20;75.30;;;;;;5066187;28;19912;-57
2022/02/07 07:34:39;;;;;;;;;;;24.20;75.20;;;;;;5087865;28;20299;-48
2022/02/07 07:37:05;;;;;;;;;;;24.20;75.00;;;;;;5065929;28;20057;-51
2022/02/07 07:39:32;;;;;;;;;;;24.20;74.60;;;;;;5085665;28;19909;-52
2022/02/07 07:42:00;;;;;;;;;;;24.20;75.30;;;;;;5064443;28;19908;-53
2022/02/07 07:44:32;;;;;;;;;;;24.20;75.60;;;;;;5085502;28;19908;-48
2022/02/07 07:47:06;;;;;;;;;;;24.20;76.40;;;;;;5087514;28;19963;-55
2022/02/07 07:49:40;;;;;;;;;;;24.20;76.10;;;;;;5088899;28;19930;-51
2022/02/07 07:52:13;;;;;;;;;;;24.20;76.40;;;;;;5079844;28;19985;-50
2022/02/07 07:54:53;;;;;;;;;;;24.20;77.60;;;;;;5087039;28;19976;-52
2022/02/07 08:02:52;;;;;;;;;;;24.20;78.90;;;;;;5085103;28;19934;-57
2022/02/07 08:08:29;;;;;;;;;;;24.10;80.00;;;;;;5053810;28;19977;-56
2022/02/07 08:11:03;;;;;;;;;;;24.20;80.60;;;;;;5077067;28;19938;-58
2022/02/07 08:13:32;;;;;;;;;;;24.20;82.50;;;;;;5082607;28;19953;-47
2022/02/07 08:15:59;;;;;;;;;;;24.10;82.20;;;;;;5086198;28;20309;-51
2022/02/07 08:18:26;;;;;;;;;;;24.10;82.40;;;;;;5086274;28;20264;-56
2022/02/07 08:20:53;;;;;;;;;;;24.10;84.30;;;;;;5064808;28;20390;-52
2022/02/07 08:23:20;;;;;;;;;;;24.10;84.50;;;;;;5085132;28;20003;-52
2022/02/07 08:25:47;;;;;;;;;;;24.10;85.70;;;;;;5087141;28;19912;-51
2022/02/07 08:28:13;;;;;;;;;;;24.10;85.80;;;;;;5083819;28;19948;-53
2022/02/07 08:30:40;;;;;;;;;;;24.10;86.80;;;;;;5078829;28;19970;-57
2022/02/07 08:33:07;;;;;;;;;;;24.10;85.00;;;;;;5085706;28;19917;-58
2022/02/07 08:35:34;;;;;;;;;;;24.10;85.10;;;;;;5087123;28;20384;-56
2022/02/07 08:38:00;;;;;;;;;;;24.20;87.40;;;;;;5086774;28;20362;-56
2022/02/07 08:40:28;;;;;;;;;;;24.20;85.70;;;;;;5078037;28;20003;-54
2022/02/07 08:42:55;;;;;;;;;;;24.30;86.60;;;;;;5080249;28;19908;-54
2022/02/07 08:45:22;;;;;;;;;;;24.30;83.40;;;;;;5083751;28;20350;-56
2022/02/07 08:47:49;;;;;;;;;;;24.20;85.30;;;;;;5079664;28;20410;-53
2022/02/07 08:50:16;;;;;;;;;;;24.10;81.90;;;;;;5089892;28;19914;-61
2022/02/07 08:52:47;;;;;;;;;;;24.20;84.90;;;;;;5092538;28;19908;-60
2022/02/07 08:55:26;;;;;;;;;;;24.20;82.70;;;;;;5093039;28;20000;-60
2022/02/07 08:57:58;;;;;;;;;;;24.10;83.10;;;;;;5092697;28;19909;-61
2022/02/07 09:00:51;;;;;;;;;;;24.10;81.70;;;;;;5092764;28;19908;-60
2022/02/07 09:10:46;;;;;;;;;;;24.20;81.60;;;;;;5078854;28;19943;-56
2022/02/07 09:13:18;;;;;;;;;;;24.20;86.10;;;;;;5081250;28;19961;-59
2022/02/07 09:16:05;;;;;;;;;;;24.20;85.80;;;;;;5079162;28;19920;-56
2022/02/07 09:18:31;;;;;;;;;;;24.20;83.90;;;;;;5092426;28;19965;-57
2022/02/07 09:21:00;;;;;;;;;;;24.10;82.90;;;;;;5091026;28;19908;-67
2022/02/07 09:23:30;;;;;;;;;;;24.10;82.00;;;;;;5090363;28;19908;-59
2022/02/07 09:25:57;;;;;;;;;;;24.10;83.30;;;;;;5086120;28;19920;-55
2022/02/07 09:28:24;;;;;;;;;;;24.10;82.80;;;;;;5088670;28;19919;-53
2022/02/07 09:30:52;;;;;;;;;;;24.10;82.50;;;;;;5090056;28;19944;-53
2022/02/07 09:33:20;;;;;;;;;;;24.10;81.40;;;;;;5084602;28;19909;-51
2022/02/07 09:35:49;;;;;;;;;;;24.10;81.60;;;;;;5089226;28;20462;-60
2022/02/07 09:38:17;;;;;;;;;;;24.00;81.10;;;;;;5088654;28;19908;-55
2022/02/07 09:40:49;;;;;;;;;;;24.10;80.70;;;;;;5088972;28;20116;-56
2022/02/07 09:43:17;;;;;;;;;;;24.10;81.30;;;;;;5086583;28;19955;-53
2022/02/07 09:45:45;;;;;;;;;;;24.10;81.30;;;;;;5089635;28;19920;-59
2022/02/07 09:48:14;;;;;;;;;;;24.10;81.30;;;;;;5088268;28;19916;-52
2022/02/07 09:50:40;;;;;;;;;;;24.00;81.30;;;;;;5088615;28;20350;-61
2022/02/07 09:53:07;;;;;;;;;;;24.10;81.30;;;;;;5085666;28;19923;-51
2022/02/07 09:55:34;;;;;;;;;;;24.10;81.20;;;;;;5088835;28;20002;-53
2022/02/07 09:58:01;;;;;;;;;;;24.10;81.30;;;;;;5088440;28;19916;-51
2022/02/07 10:00:34;;;;;;;;;;;24.00;81.00;;;;;;5087773;28;19916;-53
2022/02/07 10:03:06;;;;;;;;;;;24.00;81.10;;;;;;5085397;28;20432;-58
2022/02/07 10:05:43;;;;;;;;;;;23.90;81.10;;;;;;5085972;28;19912;-52
2022/02/07 10:08:17;;;;;;;;;;;23.90;81.20;;;;;;5091804;28;19912;-61
2022/02/07 10:10:57;;;;;;;;;;;23.90;81.10;;;;;;5092459;28;19994;-56
2022/02/07 10:14:29;;;;;;;;;;;23.90;81.10;;;;;;5091948;28;19908;-55
2022/02/07 10:21:56;;;;;;;;;;;23.80;81.00;;;;;;5089519;28;19908;-53
2022/02/07 10:38:37;;;;;;;;;;;23.80;80.70;;;;;;5089853;28;20304;-57
2022/02/07 10:43:57;;;;;;;;;;;23.80;80.50;;;;;;5091382;28;19916;-55
2022/02/07 10:46:21;;;;;;;;;;;23.70;80.50;;;;;;5092706;28;19916;-53
2022/02/07 10:48:52;;;;;;;;;;;23.70;80.40;;;;;;5092217;28;19934;-57
2022/02/07 10:51:26;;;;;;;;;;;23.70;80.20;;;;;;5090943;28;19987;-56
2022/02/07 10:53:53;;;;;;;;;;;23.70;80.40;;;;;;5091545;28;19936;-49
2022/02/07 10:56:36;;;;;;;;;;;23.70;79.80;;;;;;5091384;28;19919;-56
2022/02/07 10:59:22;;;;;;;;;;;23.70;80.10;;;;;;5087750;28;20366;-52
2022/02/07 11:04:26;;;;;;;;;;;23.70;80.20;;;;;;5094227;28;19908;-52
2022/02/07 11:07:00;;;;;;;;;;;23.70;80.30;;;;;;5095355;28;19916;-55
2022/02/07 11:09:42;;;;;;;;;;;23.70;80.30;;;;;;5095170;28;20011;-58
2022/02/07 11:15:10;;;;;;;;;;;23.60;80.30;;;;;;5094956;28;19934;-55
2022/02/07 11:17:42;;;;;;;;;;;23.60;80.40;;;;;;5095706;28;20030;-57
2022/02/07 11:20:28;;;;;;;;;;;23.60;80.30;;;;;;5094735;28;19908;-52
2022/02/07 11:23:09;;;;;;;;;;;23.60;80.40;;;;;;5095173;28;19947;-60
2022/02/07 11:25:56;;;;;;;;;;;23.50;80.50;;;;;;5094598;28;20006;-55
2022/02/07 11:28:26;;;;;;;;;;;23.50;80.60;;;;;;5095414;28;19909;-56
2022/02/07 11:30:55;;;;;;;;;;;23.50;80.70;;;;;;5090812;28;19954;-51
2022/02/07 11:33:30;;;;;;;;;;;23.50;80.80;;;;;;5093856;28;19915;-53
2022/02/07 11:35:59;;;;;;;;;;;23.40;80.80;;;;;;5091904;28;19927;-53
2022/02/07 11:38:26;;;;;;;;;;;23.40;80.90;;;;;;5091825;28;19916;-47
2022/02/07 11:41:02;;;;;;;;;;;23.40;81.10;;;;;;5090476;28;20007;-52
2022/02/07 11:43:31;;;;;;;;;;;23.30;81.00;;;;;;5090192;28;20362;-59
2022/02/07 11:45:57;;;;;;;;;;;23.30;81.20;;;;;;5090081;28;19919;-55
2022/02/07 11:48:27;;;;;;;;;;;23.30;81.20;;;;;;5092127;28;19916;-50
2022/02/07 11:50:58;;;;;;;;;;;23.30;81.20;;;;;;5090929;28;19933;-55
2022/02/07 11:53:32;;;;;;;;;;;23.30;81.20;;;;;;5090431;28;19954;-61
2022/02/07 11:56:07;;;;;;;;;;;23.20;81.20;;;;;;5090034;28;19916;-49
2022/02/07 11:58:54;;;;;;;;;;;23.20;81.10;;;;;;5088559;28;19949;-61
2022/02/07 12:01:24;;;;;;;;;;;23.20;81.20;;;;;;5091966;28;19911;-59
2022/02/07 12:03:56;;;;;;;;;;;23.20;81.20;;;;;;5093336;28;19969;-52
2022/02/07 12:06:24;;;;;;;;;;;23.20;81.30;;;;;;5094097;28;19920;-58
2022/02/07 12:08:53;;;;;;;;;;;23.20;81.30;;;;;;5094170;28;20048;-56
2022/02/07 12:11:20;;;;;;;;;;;23.10;81.20;;;;;;5094202;28;20007;-58
2022/02/07 12:13:47;;;;;;;;;;;23.10;81.20;;;;;;5094238;28;19908;-55
2022/02/07 12:16:21;;;;;;;;;;;23.10;81.20;;;;;;5091891;28;20399;-56
2022/02/07 12:19:10;;;;;;;;;;;23.10;81.30;;;;;;5093863;28;19912;-58
2022/02/07 12:21:37;;;;;;;;;;;23.10;81.40;;;;;;5087428;28;19916;-60
2022/02/07 12:24:04;;;;;;;;;;;23.00;81.30;;;;;;5094047;28;19969;-53
2022/02/07 12:26:40;;;;;;;;;;;23.00;81.40;;;;;;5094000;28;19959;-53
2022/02/07 12:29:19;;;;;;;;;;;23.00;81.40;;;;;;5094257;28;19908;-53
2022/02/07 12:31:46;;;;;;;;;;;23.00;81.30;;;;;;5094643;28;19908;-56
2022/02/07 12:34:15;;;;;;;;;;;22.90;81.20;;;;;;5094109;28;19908;-55
2022/02/07 12:36:42;;;;;;;;;;;22.90;81.30;;;;;;5094060;28;19912;-59
2022/02/07 12:39:13;;;;;;;;;;;22.90;81.30;;;;;;5093247;28;19915;-58
2022/02/07 12:41:40;;;;;;;;;;;22.90;81.30;;;;;;5093052;28;19916;-52
2022/02/07 12:44:18;;;;;;;;;;;22.90;81.40;;;;;;5093227;28;19969;-55
2022/02/07 12:46:46;;;;;;;;;;;22.90;81.50;;;;;;5093100;28;20310;-54
2022/02/07 12:49:13;;;;;;;;;;;22.80;81.40;;;;;;5092988;28;19908;-59
2022/02/07 12:51:46;;;;;;;;;;;22.80;81.50;;;;;;5093070;28;19931;-56
2022/02/07 12:54:14;;;;;;;;;;;22.80;81.60;;;;;;5092892;28;19920;-53
2022/02/07 12:56:41;;;;;;;;;;;22.80;82.30;;;;;;5092522;28;19912;-55
2022/02/07 12:59:08;;;;;;;;;;;22.80;81.80;;;;;;5093185;28;19999;-55
2022/02/07 13:01:36;;;;;;;;;;;22.80;81.90;;;;;;5092839;28;19908;-51
2022/02/07 13:04:04;;;;;;;;;;;22.80;81.90;;;;;;5092404;28;20002;-57
2022/02/07 13:06:37;;;;;;;;;;;22.70;81.90;;;;;;5092782;28;19916;-53
2022/02/07 13:09:21;;;;;;;;;;;22.70;82.20;;;;;;5092893;28;20320;-59
2022/02/07 13:14:36;;;;;;;;;;;22.60;82.20;;;;;;5092898;28;19919;-54
2022/02/07 13:17:04;;;;;;;;;;;22.60;82.30;;;;;;5076934;28;19930;-51
2022/02/07 13:19:34;;;;;;;;;;;22.60;82.40;;;;;;5081601;28;19908;-46
2022/02/07 13:22:01;;;;;;;;;;;22.60;82.50;;;;;;5084182;28;19934;-56
2022/02/07 13:24:31;;;;;;;;;;;22.60;82.60;;;;;;5085644;28;19908;-52
2022/02/07 13:27:01;;;;;;;;;;;22.60;82.70;;;;;;5085566;28;19916;-50
2022/02/07 13:29:29;;;;;;;;;;;22.60;82.70;;;;;;5091980;28;19908;-53
2022/02/07 13:32:04;;;;;;;;;;;22.50;82.80;;;;;;5092179;28;19953;-55
2022/02/07 13:34:32;;;;;;;;;;;22.50;82.80;;;;;;5092473;28;19912;-53
2022/02/07 13:37:05;;;;;;;;;;;22.50;82.90;;;;;;5092259;28;19916;-55
2022/02/07 13:39:32;;;;;;;;;;;22.50;82.90;;;;;;5092434;28;19912;-50
2022/02/07 13:42:04;;;;;;;;;;;22.50;83.00;;;;;;5091912;28;19977;-54
2022/02/07 13:44:30;;;;;;;;;;;22.50;83.00;;;;;;5092304;28;20277;-53
2022/02/07 13:47:03;;;;;;;;;;;22.40;83.10;;;;;;5092350;28;19946;-54
2022/02/07 13:49:31;;;;;;;;;;;22.40;83.20;;;;;;5092097;28;19908;-56
2022/02/07 13:51:58;;;;;;;;;;;22.40;83.30;;;;;;5091917;28;19915;-53
2022/02/07 13:54:29;;;;;;;;;;;22.40;83.40;;;;;;5091132;28;20358;-54
2022/02/07 13:56:59;;;;;;;;;;;22.40;83.40;;;;;;5091875;28;19908;-57
2022/02/07 13:59:34;;;;;;;;;;;22.30;83.40;;;;;;5092502;28;19924;-50
2022/02/07 14:02:00;;;;;;;;;;;22.30;83.50;;;;;;5092109;28;19961;-51
2022/02/07 14:04:29;;;;;;;;;;;22.30;83.60;;;;;;5092100;28;19988;-51
2022/02/07 14:07:10;;;;;;;;;;;22.30;83.60;;;;;;5092086;28;19931;-54
2022/02/07 14:09:40;;;;;;;;;;;22.30;83.60;;;;;;5096206;28;19936;-54
2022/02/07 14:12:07;;;;;;;;;;;22.30;83.70;;;;;;5095863;28;20021;-59
2022/02/07 14:14:34;;;;;;;;;;;22.30;83.80;;;;;;5096163;28;19912;-58
2022/02/07 14:17:01;;;;;;;;;;;22.30;83.80;;;;;;5096211;28;19930;-55
2022/02/07 14:19:51;;;;;;;;;;;22.30;83.90;;;;;;5095981;28;20417;-57
2022/02/07 14:22:18;;;;;;;;;;;22.20;84.00;;;;;;5096139;28;19916;-58
2022/02/07 14:24:44;;;;;;;;;;;22.20;84.00;;;;;;5096041;28;20250;-57
2022/02/07 14:27:11;;;;;;;;;;;22.20;84.10;;;;;;5095989;28;19920;-49
2022/02/07 14:29:38;;;;;;;;;;;22.20;84.20;;;;;;5096504;28;19957;-54
2022/02/07 14:32:05;;;;;;;;;;;22.20;84.40;;;;;;5095536;28;20219;-56
2022/02/07 14:34:31;;;;;;;;;;;22.20;84.50;;;;;;5095901;28;19923;-51
2022/02/07 14:36:58;;;;;;;;;;;22.10;84.50;;;;;;5096079;28;19947;-58
2022/02/07 14:39:24;;;;;;;;;;;22.10;84.50;;;;;;5095934;28;19908;-50
2022/02/07 14:41:52;;;;;;;;;;;22.10;84.60;;;;;;5095509;28;19919;-57
2022/02/07 14:44:26;;;;;;;;;;;22.10;84.70;;;;;;5095778;28;19915;-54
2022/02/07 14:47:06;;;;;;;;;;;22.10;84.70;;;;;;5095771;28;19919;-54
2022/02/07 14:49:32;;;;;;;;;;;22.10;84.80;;;;;;5095802;28;19928;-52
2022/02/07 14:52:02;;;;;;;;;;;22.10;84.80;;;;;;5095406;28;20278;-52
2022/02/07 14:54:29;;;;;;;;;;;22.00;84.90;;;;;;5095580;28;20274;-51
2022/02/07 14:56:55;;;;;;;;;;;22.00;85.00;;;;;;5095879;28;19908;-57
2022/02/07 14:59:23;;;;;;;;;;;22.00;85.00;;;;;;5095229;28;20007;-56
2022/02/07 15:01:52;;;;;;;;;;;22.00;85.10;;;;;;5095447;28;19958;-57
2022/02/07 15:04:22;;;;;;;;;;;21.90;85.10;;;;;;5095330;28;19946;-54
2022/02/07 15:06:48;;;;;;;;;;;21.90;85.20;;;;;;5095318;28;19916;-55
2022/02/07 15:09:17;;;;;;;;;;;21.90;85.30;;;;;;5095399;28;20278;-51
2022/02/07 15:11:44;;;;;;;;;;;21.90;85.30;;;;;;5095350;28;19908;-59
2022/02/07 15:14:11;;;;;;;;;;;21.90;85.40;;;;;;5094830;28;19912;-55
2022/02/07 15:16:37;;;;;;;;;;;21.80;85.50;;;;;;5094946;28;19916;-58
2022/02/07 15:19:04;;;;;;;;;;;21.90;85.50;;;;;;5094754;28;19943;-57
2022/02/07 15:21:31;;;;;;;;;;;21.80;85.50;;;;;;5094653;28;19908;-60
2022/02/07 15:23:58;;;;;;;;;;;21.80;85.60;;;;;;5094705;28;19908;-55
2022/02/07 15:26:24;;;;;;;;;;;21.80;85.70;;;;;;5094750;28;20014;-55
2022/02/07 15:28:51;;;;;;;;;;;21.80;85.70;;;;;;5094993;28;19912;-53
2022/02/07 15:31:20;;;;;;;;;;;21.80;85.80;;;;;;5094842;28;20378;-58
2022/02/07 15:33:49;;;;;;;;;;;21.80;85.80;;;;;;5094794;28;19912;-58
2022/02/07 15:36:16;;;;;;;;;;;21.80;85.90;;;;;;5094600;28;20326;-58
2022/02/07 15:38:44;;;;;;;;;;;21.80;85.90;;;;;;5094472;28;19962;-55
2022/02/07 15:41:11;;;;;;;;;;;21.80;86.00;;;;;;5094509;28;19915;-55
2022/02/07 15:43:38;;;;;;;;;;;21.80;86.10;;;;;;5094417;28;19912;-49
2022/02/07 15:46:04;;;;;;;;;;;21.80;86.10;;;;;;5094217;28;19945;-59
2022/02/07 15:48:33;;;;;;;;;;;21.70;86.20;;;;;;5094490;28;19931;-61
2022/02/07 15:51:00;;;;;;;;;;;21.70;86.30;;;;;;5094279;28;19962;-57
2022/02/07 15:53:27;;;;;;;;;;;21.70;86.30;;;;;;5094239;28;19908;-58
2022/02/07 15:55:53;;;;;;;;;;;21.70;86.40;;;;;;5093958;28;19916;-55
2022/02/07 15:58:20;;;;;;;;;;;21.70;86.40;;;;;;5094214;28;20281;-59
2022/02/07 16:00:47;;;;;;;;;;;21.70;86.40;;;;;;5076101;28;19930;-59
2022/02/07 16:03:13;;;;;;;;;;;21.70;86.50;;;;;;5094274;28;20388;-57
2022/02/07 16:05:40;;;;;;;;;;;21.70;86.50;;;;;;5094178;28;20394;-60
2022/02/07 16:08:08;;;;;;;;;;;21.60;86.50;;;;;;5093806;28;19969;-57
2022/02/07 16:10:37;;;;;;;;;;;21.70;86.60;;;;;;5093782;28;20380;-59
2022/02/07 16:13:19;;;;;;;;;;;21.70;86.60;;;;;;5094101;28;19916;-59
2022/02/07 16:15:47;;;;;;;;;;;21.70;86.70;;;;;;5093932;28;19943;-54
2022/02/07 16:18:16;;;;;;;;;;;21.60;86.60;;;;;;5093674;28;20346;-55
2022/02/07 16:20:43;;;;;;;;;;;21.60;86.70;;;;;;5093878;28;19915;-59
2022/02/07 16:23:12;;;;;;;;;;;21.60;86.80;;;;;;5093870;28;20262;-56
2022/02/07 16:25:42;;;;;;;;;;;21.60;86.80;;;;;;5093732;28;19923;-57
2022/02/07 16:28:12;;;;;;;;;;;21.60;87.40;;;;;;5074139;28;19923;-58
2022/02/07 16:30:39;;;;;;;;;;;21.60;86.80;;;;;;5055016;28;19908;-59
2022/02/07 16:33:06;;;;;;;;;;;21.60;86.90;;;;;;5073404;28;19909;-58
2022/02/07 16:35:35;;;;;;;;;;;21.60;86.90;;;;;;5073387;28;20018;-62
2022/02/07 16:38:02;;;;;;;;;;;21.60;86.90;;;;;;5055116;28;19913;-59
2022/02/07 16:40:29;;;;;;;;;;;21.60;86.90;;;;;;5073240;28;19908;-58
2022/02/07 16:42:55;;;;;;;;;;;21.60;86.90;;;;;;5073464;28;20374;-59